This is the latest recevied weather packets stored in our database for station/object OE3XAM-13. If no packets are shown the sender has not sent any weather packets the latest 10 day(s).
| Time | Temp. | Humidity | Pressure | Rain* | Wind** | Luminosity | Snow |
|---|---|---|---|---|---|---|---|
| 1777320688 | 10.56° C | 54% | 983 hPa | 0 mm | - | - | - |
| 1777318888 | 11.67° C | 51% | 983 hPa | 0 mm | - | - | - |
| 1777317088 | 12.78° C | 48% | 983 hPa | 0 mm | - | - | - |
| 1777315288 | 13.33° C | 44% | 982 hPa | 0 mm | - | - | - |
| 1777313488 | 15° C | 39% | 982 hPa | 0 mm | - | - | - |
| 1777311688 | 16.67° C | 34% | 983 hPa | 0 mm | - | - | - |
| 1777309888 | 18.89° C | 28% | 982 hPa | 0 mm | - | - | - |
| 1777308088 | 19.44° C | 26% | 982 hPa | 0 mm | - | - | - |
| 1777306288 | 20.56° C | 23% | 983 hPa | 0 mm | - | - | - |
| 1777304488 | 21.67° C | 22% | 983 hPa | 0 mm | - | - | - |
| 1777302688 | 22.78° C | 18% | 983 hPa | 0 mm | - | - | - |
| 1777300888 | 21.67° C | 21% | 983 hPa | 0 mm | - | - | - |
| 1777299088 | 22.78° C | 22% | 983 hPa | 0 mm | - | - | - |
| 1777297288 | 21.67° C | 24% | 984 hPa | 0 mm | - | - | - |
| 1777295488 | 21.11° C | 23% | 984 hPa | 0 mm | - | - | - |
| 1777293688 | 21.11° C | 25% | 985 hPa | 0 mm | - | - | - |
| 1777291888 | 20.56° C | 25% | 985 hPa | 0 mm | - | - | - |
| 1777290088 | 20° C | 27% | 985 hPa | 0 mm | - | - | - |
| 1777288288 | 18.89° C | 28% | 985 hPa | 0 mm | - | - | - |
| 1777286488 | 18.33° C | 30% | 986 hPa | 0 mm | - | - | - |
| 1777284688 | 17.22° C | 31% | 986 hPa | 0 mm | - | - | - |
| 1777282888 | 16.67° C | 33% | 986 hPa | 0 mm | - | - | - |
| 1777281088 | 15.56° C | 34% | 987 hPa | 0 mm | - | - | - |
| 1777279288 | 13.89° C | 37% | 987 hPa | 0 mm | - | - | - |
| 1777277488 | 12.78° C | 40% | 987 hPa | 0 mm | - | - | - |
* Rain latest hour (hover to see other rain measurements)
** Current wind speed in m/s (hover to see current wind gust speed)